Time;durP1;ratioP1;P1;durP2;ratioP2;P2;SDS_P1;SDS_P2;PMS_P1;PMS_P2;Temp;Humidity;BMP_temperature;BMP_pressure;BME280_temperature;BME280_humidity;BME280_pressure;Samples;Min_cycle;Max_cycle;Signal;HPM_P1;HPM_P2
2024/02/12 00:01:45;;;;;;;1.90;1.30;;;;;;;7.66;78.62;96045.97;6151559;28;20217;-54
2024/02/12 00:04:49;;;;;;;0.90;0.80;;;;;;;7.60;79.85;96057.63;6163447;28;20205;-58
2024/02/12 00:07:52;;;;;;;1.23;0.67;;;;;;;7.51;81.70;96053.88;6151307;28;20603;-56
2024/02/12 00:10:55;;;;;;;1.70;0.93;;;;;;;7.42;80.94;96055.44;6163314;28;20292;-58
2024/02/12 00:13:57;;;;;;;0.93;0.83;;;;;;;7.34;82.65;96062.06;6161449;28;20691;-57
2024/02/12 00:17:04;;;;;;;0.70;0.70;;;;;;;7.49;79.37;96062.09;6143711;28;20206;-56
2024/02/12 00:20:11;;;;;;;2.20;0.90;;;;;;;7.47;81.41;96058.09;6155029;28;20193;-57
2024/02/12 00:23:15;;;;;;;0.93;0.90;;;;;;;7.27;82.81;96047.47;6154403;28;21128;-57
2024/02/12 00:26:17;;;;;;;2.00;0.90;;;;;;;7.25;84.09;96055.69;6149041;28;20271;-56
2024/02/12 00:29:19;;;;;;;0.63;0.63;;;;;;;7.20;82.04;96053.81;6156658;28;20197;-58
2024/02/12 00:32:22;;;;;;;0.70;0.70;;;;;;;7.10;84.83;96045.84;6154286;28;20207;-57
2024/02/12 00:35:25;;;;;;;0.93;0.83;;;;;;;7.07;85.75;96070.16;6165862;28;20735;-57
2024/02/12 00:38:28;;;;;;;0.93;0.87;;;;;;;7.09;85.49;96061.97;6151623;28;20416;-58
2024/02/12 00:41:30;;;;;;;1.93;0.90;;;;;;;7.21;84.35;96067.84;6156645;28;20205;-56
2024/02/12 00:44:33;;;;;;;1.20;0.80;;;;;;;7.16;81.61;96020.16;6160151;28;20664;-56
2024/02/12 00:47:36;;;;;;;1.83;1.00;;;;;;;7.47;80.97;96063.41;6163699;28;20570;-57
2024/02/12 00:50:40;;;;;;;1.00;0.83;;;;;;;7.74;78.58;96068.50;6161685;28;20189;-56
2024/02/12 00:53:42;;;;;;;1.40;0.93;;;;;;;7.63;79.32;96064.22;6140313;28;20580;-56
2024/02/12 00:56:45;;;;;;;0.80;0.63;;;;;;;7.54;80.72;96063.97;6163425;28;20226;-56
2024/02/12 00:59:47;;;;;;;1.53;1.10;;;;;;;7.32;83.43;96066.03;6160491;28;20250;-55
2024/02/12 01:02:49;;;;;;;1.10;0.90;;;;;;;7.34;80.95;96074.50;6154813;28;20488;-58
2024/02/12 01:05:52;;;;;;;1.60;1.00;;;;;;;7.50;79.93;96062.91;6158540;28;20236;-56
2024/02/12 01:08:55;;;;;;;1.23;0.90;;;;;;;7.49;79.50;96069.25;6160707;28;20273;-58
2024/02/12 01:11:59;;;;;;;1.50;0.87;;;;;;;7.43;81.39;96064.97;6168758;28;20208;-57
2024/02/12 01:15:02;;;;;;;1.17;0.80;;;;;;;7.16;83.76;96059.88;6159088;28;20672;-56
2024/02/12 01:18:07;;;;;;;1.33;0.90;;;;;;;7.02;85.15;96072.78;6160736;28;20217;-56
2024/02/12 01:21:12;;;;;;;0.70;0.70;;;;;;;6.84;86.08;96074.03;6165211;28;20206;-54
2024/02/12 01:24:15;;;;;;;2.53;1.10;;;;;;;6.82;86.34;96083.28;6166288;28;20209;-57
2024/02/12 01:27:17;;;;;;;1.27;1.00;;;;;;;6.92;84.08;96078.03;6163708;28;20543;-57
2024/02/12 01:30:19;;;;;;;0.80;0.80;;;;;;;6.91;85.06;96085.19;6150797;28;20693;-58
2024/02/12 01:33:21;;;;;;;1.47;1.13;;;;;;;6.69;85.26;96061.50;6163188;28;20198;-58
2024/02/12 01:36:25;;;;;;;1.70;1.00;;;;;;;6.92;84.56;96072.75;6160743;28;20205;-58
2024/02/12 01:39:27;;;;;;;1.10;1.00;;;;;;;6.76;84.45;96045.41;6146346;28;20212;-55
2024/02/12 01:42:29;;;;;;;1.63;0.90;;;;;;;7.28;81.12;96064.94;6170564;28;20655;-56
2024/02/12 01:45:31;;;;;;;1.43;0.90;;;;;;;7.27;80.88;96080.03;6156396;28;20683;-57
2024/02/12 01:48:37;;;;;;;1.30;0.90;;;;;;;7.41;81.67;96062.59;6160865;28;20738;-58
2024/02/12 01:51:42;;;;;;;0.83;0.80;;;;;;;7.23;81.91;96068.38;6155230;28;20223;-57
2024/02/12 01:54:45;;;;;;;1.00;0.80;;;;;;;7.36;80.97;96080.34;6156401;28;20212;-58
2024/02/12 01:57:50;;;;;;;1.27;0.90;;;;;;;7.26;82.09;96065.22;6156770;28;20687;-56
2024/02/12 02:00:53;;;;;;;0.90;0.90;;;;;;;7.09;82.48;96073.34;6155960;23;20239;-94
2024/02/12 02:03:58;;;;;;;1.40;1.10;;;;;;;6.89;82.75;96047.59;6109679;29;20238;-92
2024/02/12 02:07:00;;;;;;;2.33;1.10;;;;;;;6.87;82.12;96054.19;6115070;29;20626;-92
2024/02/12 02:10:04;;;;;;;1.83;1.00;;;;;;;6.79;84.60;96074.00;6131091;29;20665;-93
2024/02/12 02:13:06;;;;;;;1.23;1.10;;;;;;;6.88;81.71;96053.13;6114703;29;20367;-92
2024/02/12 02:16:09;;;;;;;1.77;1.10;;;;;;;6.00;82.66;95915.41;6113153;29;20210;-93
2024/02/12 02:19:12;;;;;;;1.43;1.13;;;;;;;5.30;83.59;95836.22;6105842;29;20229;-93
2024/02/12 02:22:18;;;;;;;1.77;1.30;;;;;;;6.93;81.19;96061.09;6121427;29;20221;-95
2024/02/12 02:25:23;;;;;;;2.10;1.10;;;;;;;6.08;81.18;95904.38;6098066;29;20220;-92
2024/02/12 02:28:26;;;;;;;4.03;1.47;;;;;;;5.94;82.37;95915.38;6105648;28;20196;-93
2024/02/12 02:31:31;;;;;;;10.70;1.40;;;;;;;7.02;83.09;96072.00;6125062;29;20218;-94
2024/02/12 02:34:34;;;;;;;1.13;0.83;;;;;;;6.04;83.22;95929.72;6127383;29;20229;-92
2024/02/12 02:37:36;;;;;;;2.17;1.00;;;;;;;6.39;84.62;96025.09;6114409;29;20195;-94
2024/02/12 02:40:39;;;;;;;2.33;1.40;;;;;;;5.38;81.76;95821.78;6116302;28;20282;-92
2024/02/12 02:43:41;;;;;;;1.90;1.27;;;;;;;5.26;84.05;95860.75;6112259;29;20579;-93
2024/02/12 02:46:43;;;;;;;1.70;1.20;;;;;;;6.66;83.17;96010.97;6101989;29;20675;-92
2024/02/12 02:49:48;;;;;;;1.20;0.73;;;;;;;5.85;84.13;95918.72;6116027;29;20235;-91
2024/02/12 02:52:50;;;;;;;1.50;1.33;;;;;;;5.65;86.22;95920.19;6113199;29;20212;-92
2024/02/12 02:55:53;;;;;;;1.67;1.57;;;;;;;5.48;85.24;95890.50;6115084;28;20607;-93
2024/02/12 02:58:56;;;;;;;1.23;1.07;;;;;;;7.00;83.84;96119.13;6124460;28;20215;-92
2024/02/12 03:01:58;;;;;;;2.00;1.57;;;;;;;6.69;83.60;96063.38;6115626;29;20331;-92
2024/02/12 03:05:01;;;;;;;1.47;1.23;;;;;;;6.16;84.23;96012.28;6104687;29;20199;-94
2024/02/12 03:08:07;;;;;;;1.40;1.30;;;;;;;6.45;86.16;96070.88;6102958;29;20195;-92
2024/02/12 03:11:09;;;;;;;1.20;1.10;;;;;;;6.25;83.10;96020.50;6105930;29;20673;-92
2024/02/12 03:14:12;;;;;;;1.30;1.20;;;;;;;5.63;84.61;95900.38;6109994;29;20583;-91
2024/02/12 03:17:15;;;;;;;2.13;1.20;;;;;;;5.48;85.95;95935.38;6098595;29;20229;-91
2024/02/12 03:20:17;;;;;;;1.40;1.30;;;;;;;5.68;83.28;95961.16;6105288;29;20315;-92
2024/02/12 03:23:21;;;;;;;1.40;1.30;;;;;;;6.86;82.01;96087.81;6100297;29;20211;-91
2024/02/12 03:26:24;;;;;;;1.20;1.07;;;;;;;6.48;83.14;96022.78;6103496;29;20211;-91
2024/02/12 03:29:27;;;;;;;1.37;1.20;;;;;;;6.32;85.28;96023.75;6098545;29;20610;-91
2024/02/12 03:32:30;;;;;;;1.30;1.07;;;;;;;6.52;85.96;96105.88;6116544;29;20214;-92
2024/02/12 03:35:33;;;;;;;1.20;1.10;;;;;;;6.47;86.04;96093.41;6122540;29;20562;-91
2024/02/12 03:38:37;;;;;;;1.40;1.17;;;;;;;6.21;84.47;96025.53;6107376;29;20293;-93
2024/02/12 03:41:39;;;;;;;1.33;1.23;;;;;;;5.63;85.78;95956.63;6103198;29;20673;-93
2024/02/12 03:44:42;;;;;;;1.73;1.10;;;;;;;6.72;86.98;96150.97;6108129;29;20304;-93
2024/02/12 03:47:45;;;;;;;0.97;0.83;;;;;;;6.50;88.13;96144.19;6100610;29;20212;-93
2024/02/12 04:00:51;;;;;;;2.00;1.03;;;;;;;5.66;88.07;96021.34;6131942;29;20715;-92
2024/02/12 04:03:53;;;;;;;1.70;1.60;;;;;;;6.28;86.97;96121.28;6111493;29;20247;-91
2024/02/12 04:06:57;;;;;;;1.50;1.00;;;;;;;6.56;86.40;96159.88;6109839;29;20212;-92
2024/02/12 04:10:00;;;;;;;1.20;0.97;;;;;;;5.82;87.41;96062.75;6109860;29;20691;-93
2024/02/12 04:13:04;;;;;;;1.70;1.30;;;;;;;6.31;88.61;96147.25;6112803;29;20756;-93
2024/02/12 04:16:11;;;;;;;1.23;1.10;;;;;;;4.94;90.22;96022.50;6111820;29;20272;-92
2024/02/12 04:19:14;;;;;;;1.97;1.17;;;;;;;5.29;90.35;96031.84;6135283;29;20199;-92
2024/02/12 04:22:17;;;;;;;1.33;0.97;;;;;;;5.50;91.12;96104.94;6112076;29;20203;-92
2024/02/12 04:25:23;;;;;;;0.90;0.90;;;;;;;5.22;92.30;96057.63;6108962;29;20196;-91
2024/02/12 04:28:27;;;;;;;1.17;1.00;;;;;;;4.81;91.51;95999.13;6112085;29;20206;-92
2024/02/12 04:31:29;;;;;;;1.83;1.27;;;;;;;4.53;92.70;95984.28;6113000;29;20617;-93
2024/02/12 04:34:33;;;;;;;1.23;1.13;;;;;;;4.10;92.79;95935.78;6114322;28;20208;-92
2024/02/12 04:37:35;;;;;;;1.50;1.13;;;;;;;6.07;89.87;96164.47;6116844;29;20345;-92
2024/02/12 04:40:37;;;;;;;1.67;1.07;;;;;;;5.82;89.80;96117.44;6108018;29;20520;-92
2024/02/12 04:43:41;;;;;;;1.00;0.90;;;;;;;4.35;90.88;95914.22;6110295;29;20234;-92
2024/02/12 04:46:43;;;;;;;1.80;1.10;;;;;;;5.12;93.26;96066.22;6124978;29;20209;-93
2024/02/12 04:49:45;;;;;;;2.30;1.60;;;;;;;4.65;90.15;95956.75;6114870;29;20193;-93
2024/02/12 04:52:48;;;;;;;1.73;1.10;;;;;;;4.84;91.66;96028.47;6106116;29;20321;-93
2024/02/12 04:55:50;;;;;;;1.00;0.90;;;;;;;5.67;92.58;96168.28;6117888;29;20684;-93
2024/02/12 04:58:53;;;;;;;2.70;1.10;;;;;;;5.48;94.22;96138.75;6117811;28;20232;-93
2024/02/12 05:01:56;;;;;;;2.67;1.20;;;;;;;4.99;94.41;96106.22;6119280;29;20249;-92
2024/02/12 05:04:59;;;;;;;1.97;1.23;;;;;;;4.28;92.14;95937.28;6130187;29;20206;-92
2024/02/12 05:08:03;;;;;;;2.73;1.90;;;;;;;5.02;89.12;96021.25;6111381;29;20206;-92
2024/02/12 05:11:06;;;;;;;2.00;1.33;;;;;;;5.69;86.96;96082.44;6113058;29;20292;-92
2024/02/12 05:14:08;;;;;;;2.57;1.47;;;;;;;6.37;89.58;96207.06;6128535;29;20206;-93
2024/02/12 05:17:11;;;;;;;2.43;1.47;;;;;;;5.85;89.02;96143.34;6113597;28;20207;-93
2024/02/12 05:23:34;;;;;;;1.77;1.10;;;;;;;4.24;90.99;95950.19;6130539;29;20614;-93
2024/02/12 05:26:40;;;;;;;1.20;1.10;;;;;;;4.29;92.01;95944.97;6124937;29;20289;-92
2024/02/12 05:29:42;;;;;;;1.27;1.10;;;;;;;4.06;92.00;95948.63;6114212;28;20209;-92
2024/02/12 05:32:45;;;;;;;2.23;1.40;;;;;;;3.85;89.76;95894.06;6119370;29;20977;-92
2024/02/12 05:35:47;;;;;;;2.13;1.40;;;;;;;4.25;88.10;95919.34;6118382;29;20617;-92
2024/02/12 05:38:50;;;;;;;1.40;1.30;;;;;;;5.37;84.98;96055.19;6116457;29;20234;-92
2024/02/12 05:41:52;;;;;;;2.73;1.50;;;;;;;6.75;86.71;96244.97;6115037;29;20201;-91
2024/02/12 05:44:54;;;;;;;1.30;1.03;;;;;;;6.02;84.99;96135.34;6112945;28;20209;-94
2024/02/12 05:47:57;;;;;;;1.80;1.20;;;;;;;6.28;86.97;96192.69;6115356;29;20203;-92
2024/02/12 05:51:00;;;;;;;1.53;1.20;;;;;;;5.34;87.55;96048.53;6110494;29;20205;-92
2024/02/12 05:54:04;;;;;;;1.10;1.00;;;;;;;6.43;87.67;96269.53;6110830;29;20217;-95
2024/02/12 05:57:09;;;;;;;1.43;1.03;;;;;;;5.08;87.55;96044.84;6115121;29;20203;-92
2024/02/12 06:00:12;;;;;;;1.87;1.43;;;;;;;6.41;89.44;96258.41;6109243;29;20246;-92
2024/02/12 06:03:14;;;;;;;2.13;1.13;;;;;;;5.00;88.36;96100.69;6102283;29;20235;-91
2024/02/12 06:06:16;;;;;;;4.40;1.20;;;;;;;5.47;88.66;96174.13;6090070;29;20211;-93
2024/02/12 06:09:19;;;;;;;1.67;1.00;;;;;;;5.80;87.92;96180.28;6126322;28;20729;-92
2024/02/12 06:12:21;;;;;;;1.10;1.00;;;;;;;6.36;88.76;96276.88;6100313;29;20204;-92
2024/02/12 06:15:24;;;;;;;1.10;1.00;;;;;;;4.15;88.94;95951.66;6118251;29;20571;-93
2024/02/12 06:18:27;;;;;;;3.77;1.20;;;;;;;4.54;90.10;96043.91;6105060;29;20230;-91
2024/02/12 06:21:30;;;;;;;1.63;0.93;;;;;;;5.83;90.92;96259.88;6098398;29;20338;-93
2024/02/12 06:24:32;;;;;;;1.33;1.00;;;;;;;5.49;91.17;96209.00;6121710;29;20231;-92
2024/02/12 06:27:35;;;;;;;2.27;1.70;;;;;;;5.64;88.72;96221.59;6108024;29;20211;-91
2024/02/12 06:30:38;;;;;;;1.83;1.43;;;;;;;4.27;88.52;96025.31;6096653;29;20682;-92
2024/02/12 06:33:40;;;;;;;1.37;1.00;;;;;;;5.51;88.01;96188.41;6098143;29;20221;-93
2024/02/12 06:36:42;;;;;;;1.27;1.10;;;;;;;6.38;85.65;96272.13;6118238;29;20238;-93
2024/02/12 06:39:44;;;;;;;1.40;1.10;;;;;;;4.50;87.87;96026.97;6100130;29;20306;-93
2024/02/12 06:42:47;;;;;;;2.37;1.10;;;;;;;5.15;88.44;96140.44;6113982;29;20211;-92
2024/02/12 06:45:49;;;;;;;1.20;1.10;;;;;;;5.16;88.85;96151.81;6109488;29;20677;-93
2024/02/12 06:48:52;;;;;;;1.97;1.07;;;;;;;4.77;90.19;96080.59;6123085;29;20210;-93
2024/02/12 06:51:54;;;;;;;1.70;0.97;;;;;;;5.19;90.74;96175.09;6107001;29;20731;-92
2024/02/12 06:54:56;;;;;;;0.93;0.90;;;;;;;6.43;86.82;96322.44;6106463;29;20292;-93
2024/02/12 06:58:02;;;;;;;1.40;0.80;;;;;;;6.32;89.55;96317.31;6103300;29;20222;-91
2024/02/12 07:01:06;;;;;;;1.70;1.00;;;;;;;4.21;90.22;96040.28;6106991;29;20246;-93
2024/02/12 07:04:09;;;;;;;0.83;0.70;;;;;;;6.57;85.73;96344.00;6119947;29;20223;-93
2024/02/12 07:07:12;;;;;;;2.80;0.80;;;;;;;5.13;85.17;96084.47;6120726;29;20205;-93
2024/02/12 07:10:23;;;;;;;1.40;0.97;;;;;;;4.60;85.10;96029.72;6108160;29;20314;-92
2024/02/12 07:13:27;;;;;;;0.77;0.77;;;;;;;5.72;83.92;96186.03;6116145;29;20204;-92
2024/02/12 07:16:45;;;;;;;0.97;0.80;;;;;;;4.85;83.83;96066.97;6089749;29;20250;-93
2024/02/12 07:19:52;;;;;;;1.30;0.90;;;;;;;5.02;86.79;96092.50;6105883;29;20226;-93
2024/02/12 07:22:59;;;;;;;0.97;0.80;;;;;;;4.98;88.33;96101.97;6119035;29;20214;-94
2024/02/12 07:26:11;;;;;;;1.50;0.80;;;;;;;5.82;88.22;96234.50;6118750;29;20223;-91
2024/02/12 07:29:25;;;;;;;0.90;0.70;;;;;;;5.09;85.81;96090.50;6132997;29;20205;-93
2024/02/12 07:32:28;;;;;;;1.43;0.60;;;;;;;5.76;83.95;96161.47;6107718;29;20214;-93
2024/02/12 07:35:31;;;;;;;0.73;0.60;;;;;;;6.25;84.24;96240.00;6111522;29;20219;-94
2024/02/12 07:38:34;;;;;;;0.73;0.70;;;;;;;5.49;83.71;96121.84;6103864;29;20208;-94
2024/02/12 07:41:42;;;;;;;3.00;0.80;;;;;;;6.64;84.45;96333.22;6103835;29;20215;-94
2024/02/12 07:44:45;;;;;;;1.63;0.90;;;;;;;6.85;82.16;96308.56;6100886;29;20638;-94
2024/02/12 07:47:47;;;;;;;0.70;0.60;;;;;;;6.06;82.24;96170.78;6128233;29;20203;-92
2024/02/12 07:50:55;;;;;;;0.50;0.50;;;;;;;5.70;81.23;96121.00;6115356;29;20242;-94
2024/02/12 07:53:58;;;;;;;0.60;0.60;;;;;;;5.26;84.28;96051.63;6106713;29;20321;-92
2024/02/12 07:57:03;;;;;;;0.57;0.50;;;;;;;5.89;84.11;96145.25;6100957;29;20215;-93
2024/02/12 08:00:14;;;;;;;1.10;0.77;;;;;;;6.07;83.46;96217.34;6104934;29;20238;-92
2024/02/12 08:03:18;;;;;;;2.13;0.90;;;;;;;6.75;81.92;96299.72;6109913;28;20211;-92
2024/02/12 08:06:20;;;;;;;1.70;0.60;;;;;;;6.41;80.72;96224.03;6105268;29;20206;-93
2024/02/12 08:09:23;;;;;;;1.27;0.60;;;;;;;6.20;79.48;96166.69;6125918;29;20741;-92
2024/02/12 08:12:26;;;;;;;1.33;0.70;;;;;;;5.66;80.27;96095.31;6110866;29;20212;-92
2024/02/12 08:15:28;;;;;;;1.00;0.50;;;;;;;6.70;81.02;96279.31;6105804;29;20199;-92
2024/02/12 08:18:31;;;;;;;0.83;0.67;;;;;;;5.39;82.30;96068.91;6104798;28;20749;-91
2024/02/12 08:21:34;;;;;;;0.70;0.50;;;;;;;7.62;80.73;96383.31;6141950;28;20216;-93
2024/02/12 08:24:36;;;;;;;1.93;0.63;;;;;;;5.93;78.49;96090.06;6106543;29;20208;-94
2024/02/12 08:27:38;;;;;;;1.47;0.67;;;;;;;6.71;77.70;96206.81;6106253;29;20346;-92
2024/02/12 08:30:41;;;;;;;1.37;0.50;;;;;;;6.55;78.64;96157.47;6109162;29;20214;-93
2024/02/12 08:33:43;;;;;;;0.60;0.57;;;;;;;6.96;74.48;96185.81;6114645;29;20681;-92
2024/02/12 08:36:45;;;;;;;0.40;0.40;;;;;;;8.00;74.37;96358.38;6107581;29;20199;-91
2024/02/12 08:39:47;;;;;;;0.77;0.50;;;;;;;7.25;75.73;96211.94;6099057;29;20210;-92
2024/02/12 08:42:51;;;;;;;1.07;0.50;;;;;;;6.96;73.63;96151.41;6110561;29;20444;-91
2024/02/12 08:45:53;;;;;;;0.67;0.43;;;;;;;7.86;75.12;96277.69;6122235;29;20221;-94
2024/02/12 08:48:55;;;;;;;0.40;0.40;;;;;;;7.68;75.28;96252.41;6115345;29;20214;-93
2024/02/12 08:52:01;;;;;;;2.13;0.57;;;;;;;7.67;71.32;96213.72;6111028;29;20207;-93
2024/02/12 08:55:10;;;;;;;0.80;0.50;;;;;;;8.03;71.15;96238.53;6105684;29;20200;-92
2024/02/12 08:58:15;;;;;;;0.53;0.40;;;;;;;8.66;71.04;96342.72;6110660;28;20226;-92
2024/02/12 09:01:19;;;;;;;0.57;0.50;;;;;;;8.09;70.40;96265.84;6107548;29;20667;-93
2024/02/12 09:04:21;;;;;;;0.33;0.33;;;;;;;8.31;71.16;96271.75;6099892;29;20251;-92
2024/02/12 09:07:23;;;;;;;0.50;0.50;;;;;;;7.56;72.09;96169.69;6116412;29;20202;-91
2024/02/12 09:10:26;;;;;;;0.93;0.63;;;;;;;8.66;69.78;96331.31;6100346;29;20204;-93
2024/02/12 09:13:29;;;;;;;0.60;0.53;;;;;;;8.73;69.99;96322.03;6116737;29;20661;-92
2024/02/12 09:16:31;;;;;;;0.53;0.40;;;;;;;7.31;70.55;96165.88;6113064;29;20203;-93
2024/02/12 09:19:34;;;;;;;0.97;0.40;;;;;;;8.98;70.51;96360.31;6100021;29;20708;-92
2024/02/12 09:22:37;;;;;;;0.70;0.50;;;;;;;8.44;69.93;96279.25;6109554;29;20207;-93
2024/02/12 09:25:40;;;;;;;0.40;0.40;;;;;;;8.02;69.57;96187.31;6115615;29;20230;-92
2024/02/12 09:28:43;;;;;;;0.37;0.37;;;;;;;9.17;68.97;96366.72;6129992;29;20195;-92
2024/02/12 09:31:45;;;;;;;1.30;0.40;;;;;;;8.91;66.81;96280.88;6113483;29;20206;-92
2024/02/12 09:34:47;;;;;;;0.53;0.40;;;;;;;9.54;67.52;96376.28;6108551;29;20203;-92
2024/02/12 09:37:52;;;;;;;0.33;0.33;;;;;;;8.73;69.45;96213.19;6131237;29;20210;-93
2024/02/12 09:41:02;;;;;;;0.97;0.43;;;;;;;8.75;66.42;96223.53;6111141;29;20281;-93
2024/02/12 09:44:06;;;;;;;0.50;0.40;;;;;;;9.16;68.16;96297.88;6118520;28;20213;-94
2024/02/12 09:47:15;;;;;;;0.40;0.30;;;;;;;8.47;66.75;96200.94;6103675;29;20712;-95
2024/02/12 09:50:18;;;;;;;0.20;0.20;;;;;;;9.77;65.76;96382.91;6110500;29;20212;-93
2024/02/12 09:53:20;;;;;;;0.80;0.30;;;;;;;8.87;63.96;96250.63;6109469;29;20286;-92
2024/02/12 09:56:24;;;;;;;0.50;0.30;;;;;;;9.72;67.57;96365.09;6127133;29;20221;-92
2024/02/12 09:59:28;;;;;;;0.40;0.37;;;;;;;9.64;63.07;96332.94;6137225;29;20198;-92
2024/02/12 10:02:36;;;;;;;0.30;0.30;;;;;;;8.32;63.31;96127.41;6127798;29;20578;-93
2024/02/12 10:05:42;;;;;;;0.53;0.37;;;;;;;9.63;65.00;96310.06;6123575;29;20298;-92
2024/02/12 10:09:05;;;;;;;0.30;0.30;;;;;;;9.46;63.34;96295.22;6103742;29;20213;-93
2024/02/12 10:12:08;;;;;;;0.70;0.40;;;;;;;10.21;64.32;96408.91;6125484;28;20206;-92
2024/02/12 10:15:13;;;;;;;0.40;0.40;;;;;;;9.04;64.21;96219.25;6118459;29;20379;-91
2024/02/12 10:18:16;;;;;;;0.83;0.50;;;;;;;9.43;64.41;96309.03;6101076;29;20208;-94
2024/02/12 10:21:23;;;;;;;1.03;0.50;;;;;;;9.36;61.92;96257.19;6110937;29;20219;-92
2024/02/12 10:24:27;;;;;;;0.80;0.50;;;;;;;8.27;63.96;96124.75;6112688;29;20709;-92
2024/02/12 10:27:29;;;;;;;0.73;0.50;;;;;;;9.59;63.19;96356.88;6125578;29;20208;-94
2024/02/12 10:30:31;;;;;;;0.67;0.40;;;;;;;8.47;62.60;96154.00;6114547;29;20241;-92
2024/02/12 10:33:34;;;;;;;0.83;0.40;;;;;;;9.62;64.00;96359.78;6119123;29;20216;-93
2024/02/12 10:36:36;;;;;;;0.87;0.50;;;;;;;9.80;64.50;96380.50;6130416;29;20714;-92
2024/02/12 10:39:40;;;;;;;1.80;0.63;;;;;;;9.24;63.57;96271.56;6123223;29;20257;-92
2024/02/12 10:42:52;;;;;;;0.43;0.43;;;;;;;9.08;64.88;96254.06;6126881;29;20212;-91
2024/02/12 10:45:54;;;;;;;1.17;0.50;;;;;;;9.43;62.80;96266.50;6121173;29;20213;-92
2024/02/12 10:49:00;;;;;;;0.63;0.50;;;;;;;8.24;63.78;96138.56;6113723;29;20677;-93
2024/02/12 10:52:03;;;;;;;2.37;0.70;;;;;;;10.00;65.15;96368.22;6099609;29;20203;-94
2024/02/12 10:55:09;;;;;;;2.17;0.60;;;;;;;9.92;64.68;96350.97;6109324;29;20305;-92
2024/02/12 10:58:12;;;;;;;0.83;0.47;;;;;;;8.83;62.91;96188.50;6099987;28;20213;-91
2024/02/12 11:01:15;;;;;;;1.13;0.37;;;;;;;10.04;60.92;96338.13;6097706;29;20315;-91
2024/02/12 11:04:18;;;;;;;0.47;0.40;;;;;;;10.39;61.90;96387.03;6122380;29;20227;-91
2024/02/12 11:07:24;;;;;;;0.83;0.30;;;;;;;10.64;59.16;96366.69;6103466;29;20197;-93
2024/02/12 11:10:32;;;;;;;0.30;0.30;;;;;;;10.51;59.87;96346.78;6101532;29;20709;-92
2024/02/12 11:13:39;;;;;;;1.07;0.50;;;;;;;10.87;59.46;96379.34;6102764;29;20668;-92
2024/02/12 11:16:43;;;;;;;0.73;0.40;;;;;;;9.88;61.98;96262.13;6106658;29;20210;-92
2024/02/12 11:19:50;;;;;;;0.80;0.40;;;;;;;10.37;60.79;96351.91;6103482;29;20612;-91
2024/02/12 11:22:54;;;;;;;1.53;0.30;;;;;;;10.49;60.69;96352.41;6103471;29;20209;-92
2024/02/12 11:26:00;;;;;;;0.63;0.30;;;;;;;9.15;59.44;96135.03;6101801;29;20207;-93
2024/02/12 11:29:07;;;;;;;0.30;0.30;;;;;;;10.67;62.24;96377.59;6100735;29;20714;-92
2024/02/12 11:32:18;;;;;;;0.53;0.40;;;;;;;10.62;62.25;96390.94;6103771;29;20590;-92
2024/02/12 11:35:20;;;;;;;1.50;0.60;;;;;;;10.57;59.84;96383.75;6109010;29;20205;-90
2024/02/12 11:38:22;;;;;;;0.67;0.50;;;;;;;10.18;60.83;96330.38;6101522;29;20237;-91
2024/02/12 11:41:25;;;;;;;1.10;0.50;;;;;;;10.09;60.11;96367.38;6102922;29;20553;-92
2024/02/12 11:44:28;;;;;;;0.70;0.50;;;;;;;9.99;60.93;96355.97;6101413;29;20666;-92
2024/02/12 11:47:31;;;;;;;1.07;0.93;;;;;;;8.25;61.38;96126.88;6102934;29;20839;-92
2024/02/12 11:50:34;;;;;;;0.50;0.50;;;;;;;10.41;62.28;96416.06;6111306;29;20583;-92
2024/02/12 11:53:38;;;;;;;0.57;0.50;;;;;;;9.99;61.81;96356.78;6115192;29;20213;-92
2024/02/12 11:56:40;;;;;;;0.50;0.50;;;;;;;10.42;61.39;96413.09;6105489;29;20213;-90
2024/02/12 11:59:45;;;;;;;1.07;0.70;;;;;;;10.23;63.24;96390.78;6113661;29;20285;-92
2024/02/12 12:02:52;;;;;;;0.60;0.60;;;;;;;8.23;61.32;96160.84;6129517;29;20213;-90
2024/02/12 12:05:55;;;;;;;1.37;0.70;;;;;;;9.12;62.25;96294.19;6102927;29;20206;-91
2024/02/12 12:08:58;;;;;;;0.73;0.63;;;;;;;9.21;63.37;96325.28;6104467;29;20201;-92
2024/02/12 12:12:00;;;;;;;0.53;0.53;;;;;;;8.91;64.07;96262.28;6107675;29;20210;-92
2024/02/12 12:15:06;;;;;;;0.70;0.60;;;;;;;9.21;62.57;96333.25;6113666;29;20194;-93
2024/02/12 12:18:08;;;;;;;1.87;0.90;;;;;;;9.29;63.03;96326.59;6110909;29;20609;-91
2024/02/12 12:21:18;;;;;;;0.77;0.60;;;;;;;8.92;61.70;96253.28;6109047;29;20610;-92
2024/02/12 12:24:59;;;;;;;1.27;0.63;;;;;;;9.79;63.12;96410.81;6129468;29;20220;-91
2024/02/12 12:28:01;;;;;;;0.50;0.50;;;;;;;8.91;62.04;96312.75;6122303;29;20208;-92
2024/02/12 12:31:11;;;;;;;0.60;0.60;;;;;;;8.72;62.36;96309.03;6078008;29;20647;-91
2024/02/12 12:34:17;;;;;;;1.27;0.40;;;;;;;7.76;61.54;96175.06;6101283;29;20207;-93
2024/02/12 12:37:19;;;;;;;0.57;0.50;;;;;;;9.10;61.85;96347.56;6085334;29;20598;-94
2024/02/12 12:40:25;;;;;;;0.50;0.50;;;;;;;7.81;60.79;96163.69;6084013;29;20199;-92
2024/02/12 12:43:27;;;;;;;0.47;0.30;;;;;;;9.84;59.98;96428.63;6101565;29;20199;-91
2024/02/12 12:46:32;;;;;;;0.73;0.50;;;;;;;9.09;60.78;96279.56;6103430;29;20226;-94
2024/02/12 12:49:37;;;;;;;0.83;0.40;;;;;;;8.91;60.06;96266.81;6103678;29;20208;-91
2024/02/12 12:52:41;;;;;;;0.80;0.60;;;;;;;9.17;58.90;96283.56;6092137;29;20257;-92
2024/02/12 12:55:52;;;;;;;0.47;0.40;;;;;;;10.39;59.22;96418.16;6113351;29;20203;-91
2024/02/12 12:59:09;;;;;;;1.33;0.50;;;;;;;9.41;57.99;96329.78;6113626;29;20617;-91
2024/02/12 13:02:20;;;;;;;0.70;0.40;;;;;;;10.11;59.90;96440.84;6086985;29;20248;-93
2024/02/12 13:05:41;;;;;;;0.80;0.60;;;;;;;8.83;60.52;96289.38;6108768;29;20210;-92
2024/02/12 13:08:45;;;;;;;0.50;0.50;;;;;;;8.43;61.81;96258.28;6117535;29;20201;-94
2024/02/12 13:11:51;;;;;;;0.73;0.60;;;;;;;9.12;62.84;96361.41;6097499;29;20210;-94
2024/02/12 13:14:53;;;;;;;0.50;0.50;;;;;;;9.65;60.85;96372.53;6112265;29;20197;-93
2024/02/12 13:17:58;;;;;;;1.07;0.60;;;;;;;8.49;61.78;96222.72;6092548;29;20212;-92
2024/02/12 13:21:02;;;;;;;0.93;0.50;;;;;;;10.01;63.56;96437.13;6098654;29;20233;-91
2024/02/12 13:24:09;;;;;;;0.90;0.70;;;;;;;9.74;62.97;96405.50;6085966;29;20211;-92
2024/02/12 13:27:11;;;;;;;0.70;0.50;;;;;;;8.71;63.50;96241.03;6108560;29;20299;-93
2024/02/12 13:30:15;;;;;;;0.60;0.43;;;;;;;8.69;63.59;96240.53;6093425;29;20221;-92
2024/02/12 13:33:17;;;;;;;0.70;0.50;;;;;;;9.03;61.77;96302.69;6122355;29;20331;-93
2024/02/12 13:36:21;;;;;;;1.57;0.70;;;;;;;8.81;63.05;96275.56;6075978;29;20274;-93
2024/02/12 13:39:27;;;;;;;0.87;0.70;;;;;;;8.91;63.11;96344.63;6081716;29;20207;-92
2024/02/12 13:42:34;;;;;;;0.70;0.70;;;;;;;9.03;63.89;96357.66;6083925;29;20223;-92
2024/02/12 13:45:40;;;;;;;0.40;0.40;;;;;;;8.23;61.65;96220.00;6100368;29;20583;-92
2024/02/12 13:48:45;;;;;;;1.07;0.57;;;;;;;8.86;63.24;96327.88;6092903;29;20240;-92
2024/02/12 13:51:48;;;;;;;1.23;0.70;;;;;;;8.94;64.14;96330.81;6101228;29;20605;-93
2024/02/12 13:54:52;;;;;;;0.57;0.50;;;;;;;8.60;63.47;96284.56;6084214;29;20208;-93
2024/02/12 13:57:54;;;;;;;0.50;0.40;;;;;;;9.51;64.82;96420.16;6075537;29;20600;-93
2024/02/12 14:00:57;;;;;;;1.57;0.60;;;;;;;8.92;65.86;96358.72;6092974;29;20225;-91
2024/02/12 14:04:20;;;;;;;0.50;0.40;;;;;;;9.54;64.93;96448.84;6108116;29;20204;-93
2024/02/12 14:07:22;;;;;;;0.50;0.47;;;;;;;8.63;64.96;96297.34;6105400;29;20204;-93
2024/02/12 14:10:26;;;;;;;0.93;0.77;;;;;;;8.98;64.82;96376.25;6100985;29;20740;-92
2024/02/12 14:13:29;;;;;;;0.97;0.63;;;;;;;8.33;64.41;96258.22;6097889;29;20210;-92
2024/02/12 14:16:32;;;;;;;0.50;0.50;;;;;;;9.38;64.70;96470.38;6091482;29;20212;-92
2024/02/12 14:19:39;;;;;;;0.73;0.60;;;;;;;9.12;65.31;96449.06;6087004;29;20674;-92
2024/02/12 14:22:47;;;;;;;0.40;0.40;;;;;;;8.71;65.72;96371.13;6096165;29;20710;-92
2024/02/12 14:25:54;;;;;;;1.00;0.70;;;;;;;8.07;65.58;96297.91;6114811;29;20217;-92
2024/02/12 14:28:58;;;;;;;2.57;1.00;;;;;;;9.38;67.15;96492.44;6086906;29;20321;-92
2024/02/12 14:32:01;;;;;;;2.00;0.83;;;;;;;7.59;66.58;96217.69;6109169;29;20197;-91
2024/02/12 14:35:28;;;;;;;0.60;0.60;;;;;;;7.62;67.54;96258.75;6110092;29;20196;-91
2024/02/12 14:38:31;;;;;;;0.70;0.60;;;;;;;7.62;68.05;96256.09;6097194;29;20216;-92
2024/02/12 14:41:42;;;;;;;0.80;0.60;;;;;;;7.92;68.22;96325.16;6085788;29;20765;-91
2024/02/12 14:44:44;;;;;;;1.13;0.80;;;;;;;9.00;67.35;96459.13;6089773;29;20205;-92
2024/02/12 14:47:47;;;;;;;1.20;0.77;;;;;;;8.96;69.25;96469.44;6100780;29;20269;-93
2024/02/12 14:50:49;;;;;;;0.60;0.60;;;;;;;8.18;70.04;96381.81;6086276;29;20815;-93